Latest Weather Observations for Mount Stuart (Defence)

IDQ60801

Issued at 8:32 pm EST Tuesday 23 October 2018 (issued every 10 minutes, with the page automatically refreshed every 10 minutes)

About weather observations | Map of weather stations | Latest weather observations for QLD | Other Formats
Station Details ID: 032195 Name: MOUNT STUART (DEFENCE) Lat: -19.41 Lon: 146.76 Height: 176.36 m
Data from the previous 72 hours. | See also: Recent months at Mount Stuart (Defence)
Date/Time
EST
Temp
°C
App
Temp
°C
Dew
Point
°C
Rel
Hum
%
Delta-T
°C
Wind Press
QNH
hPa
Press
MSL
hPa
Rain since
9am
mm
Dir  Spd
km/h
Gust
km/h
Spd
kts
Gust
kts
23/08:30pm 24.5 26.9 20.8 80 2.4 ENE 9 15 5 8 - - 0.0
23/08:00pm 24.5 25.8 20.8 80 2.4 NE 15 22 8 12 - - 0.0
23/07:30pm 24.6 25.5 20.9 80 2.4 ENE 17 22 9 12 - - 0.0
23/07:00pm 24.7 26.7 20.8 79 2.6 NE 11 17 6 9 - - 0.0
23/06:30pm 24.9 26.1 20.6 77 2.8 NE 15 22 8 12 - - 0.0
23/06:00pm 25.3 25.5 20.5 75 3.2 NE 20 26 11 14 - - 0.0
23/05:30pm 25.6 25.2 20.2 72 3.5 NE 22 35 12 19 - - 0.0
23/05:00pm 26.2 25.8 20.1 69 4.0 NNE 22 37 12 20 - - 0.0
23/04:30pm 27.2 27.0 19.8 64 4.8 NNE 20 32 11 17 - - 0.0
23/04:00pm 27.7 27.1 19.8 62 5.2 NNE 22 32 12 17 - - 0.0
23/03:30pm 28.3 27.5 20.1 61 5.4 NNE 24 35 13 19 - - 0.0
23/03:00pm 29.3 29.2 19.6 56 6.4 NNE 19 32 10 17 - - 0.0
23/02:30pm 29.5 29.4 19.5 55 6.6 NNE 19 26 10 14 - - 0.0
23/02:00pm 30.4 31.0 19.4 51 7.2 NE 15 24 8 13 - - 0.0
23/01:30pm 29.4 30.1 18.8 53 6.9 NNE 13 22 7 12 - - 0.0
23/01:00pm 29.9 30.1 19.3 53 6.9 NNE 17 32 9 17 - - 0.0
23/12:30pm 28.9 28.9 18.9 54 6.5 NE 17 28 9 15 - - 0.0
23/12:00pm 30.3 30.8 20.0 54 6.8 NE 17 28 9 15 - - 0.0
23/11:30am 29.6 31.2 19.9 56 6.4 NNE 11 19 6 10 - - 0.0
23/11:00am 28.6 29.1 19.2 56 6.1 NE 15 24 8 13 - - 0.0
23/10:30am 29.4 30.2 19.1 54 6.7 NE 13 19 7 10 - - 0.0
23/10:00am 28.2 28.3 19.2 58 5.9 NE 17 26 9 14 - - 0.0
23/09:30am 28.0 28.5 19.2 58 5.7 NE 15 26 8 14 - - 0.0
23/09:00am 28.0 29.2 19.8 61 5.4 NNE 13 20 7 11 - - 0.0
23/08:30am 27.2 27.7 20.0 64 4.7 NE 17 22 9 12 - - 0.0
23/08:00am 26.3 28.8 21.1 73 3.5 NE 9 15 5 8 - - 0.0
23/07:30am 25.3 27.2 20.5 75 3.2 NE 11 22 6 12 - - 0.0
23/07:00am 25.1 27.7 21.2 79 2.6 ENE 9 15 5 8 - - 0.0
23/06:30am 23.9 26.1 21.2 85 1.8 ENE 11 17 6 9 - - 0.0
23/06:00am 23.8 26.1 21.3 86 1.7 ENE 11 17 6 9 - - 0.0
23/05:30am 23.6 25.9 21.3 87 1.5 ENE 11 15 6 8 - - 0.0
23/05:00am 24.0 26.4 20.9 83 2.0 NE 9 15 5 8 - - 0.0
23/04:30am 24.1 25.4 20.8 82 2.2 NE 15 22 8 12 - - 0.0
23/04:00am 24.1 25.5 21.0 83 2.0 NE 15 20 8 11 - - 0.0
23/03:30am 24.1 25.7 20.8 82 2.2 NE 13 17 7 9 - - 0.0
23/03:00am 24.1 27.1 21.2 84 1.9 NE 7 13 4 7 - - 0.0
23/02:30am 24.1 26.2 21.0 83 2.0 NE 11 19 6 10 - - 0.0
23/02:00am 24.1 26.2 21.0 83 2.0 NE 11 19 6 10 - - 0.0
23/01:30am 24.0 26.4 20.9 83 2.0 NNE 9 15 5 8 - - 0.0
23/01:00am 24.0 26.3 20.7 82 2.2 NNE 9 15 5 8 - - 0.0
23/12:30am 24.1 25.7 20.8 82 2.2 NNE 13 22 7 12 - - 0.0
23/12:00am 24.2 25.5 20.9 82 2.2 NE 15 22 8 12 - - 0.0
 
Date/Time
EST
Temp
°C
App
Temp
°C
Dew
Point
°C
Rel
Hum
%
Delta-T
°C
Wind Press
QNH
hPa
Press
MSL
hPa
Rain since
9am
mm
Dir  Spd
km/h
Gust
km/h
Spd
kts
Gust
kts
22/11:30pm 24.3 26.3 20.8 81 2.3 NNE 11 19 6 10 - - 0.0
22/11:00pm 24.4 26.5 20.9 81 2.3 NE 11 19 6 10 - - 0.0
22/10:30pm 24.4 26.4 20.7 80 2.4 NNE 11 17 6 9 - - 0.0
22/10:00pm 24.5 25.0 20.8 80 2.4 NNE 19 26 10 14 - - 0.0
22/09:30pm 24.5 25.9 21.0 81 2.3 NE 15 24 8 13 - - 0.0
22/09:00pm 24.6 26.2 20.7 79 2.6 NE 13 20 7 11 - - 0.0
22/08:30pm 24.6 26.7 20.9 80 2.4 NE 11 17 6 9 - - 0.0
22/08:00pm 24.5 26.0 20.6 79 2.6 NNE 13 20 7 11 - - 0.0
22/07:30pm 24.7 25.6 20.8 79 2.6 NE 17 24 9 13 - - 0.0
22/07:00pm 24.8 25.6 20.7 78 2.7 NE 17 26 9 14 - - 0.0
22/06:30pm 24.8 24.6 20.5 77 2.8 NE 22 30 12 16 - - 0.0
22/06:00pm 25.2 25.4 20.5 75 3.1 NE 20 28 11 15 - - 0.0
22/05:30pm 25.8 26.1 20.4 72 3.6 NNE 19 24 10 13 - - 0.0
22/05:00pm 26.1 25.6 20.0 69 4.0 NE 22 32 12 17 - - 0.0
22/04:30pm 27.1 27.0 20.0 65 4.7 NE 20 30 11 16 - - 0.0
22/04:00pm 27.4 27.3 20.0 64 4.9 NE 20 28 11 15 - - 0.0
22/03:30pm 27.8 27.0 20.1 63 5.1 NNE 24 35 13 19 - - 0.0
22/03:00pm 28.4 27.7 19.6 59 5.8 NE 22 32 12 17 - - 0.0
22/02:30pm 28.8 28.1 19.4 56 6.1 NE 22 32 12 17 - - 0.0
22/02:00pm 29.0 28.6 19.0 54 6.5 NNE 19 26 10 14 - - 0.0
22/01:30pm 29.5 28.2 19.8 56 6.4 ENE 26 37 14 20 - - 0.0
22/01:00pm 30.3 30.2 19.6 52 7.0 ENE 19 28 10 15 - - 0.0
22/12:30pm 31.8 32.8 19.4 47 8.2 NNW 13 19 7 10 - - 0.0
22/12:00pm 29.6 30.0 18.1 50 7.4 N 13 22 7 12 - - 0.0
22/11:30am 29.6 29.2 18.1 50 7.4 N 17 22 9 12 - - 0.0
22/11:00am 28.3 28.4 18.4 55 6.4 NNE 15 28 8 15 - - 0.0
22/10:30am 28.8 28.9 18.3 53 6.8 N 15 28 8 15 - - 0.0
22/10:00am 28.0 27.9 17.8 54 6.5 N 15 22 8 12 - - 0.0
22/09:30am 28.1 28.1 18.2 55 6.4 NNE 15 20 8 11 - - 0.0
22/09:00am 27.4 28.1 18.9 59 5.5 N 13 19 7 10 - - 0.0
22/08:30am 26.1 26.7 18.5 63 4.9 N 13 22 7 12 - - 0.0
22/08:00am 26.1 27.6 19.7 68 4.2 N 11 22 6 12 - - 0.0
22/07:30am 25.0 26.6 20.0 74 3.3 N 11 17 6 9 - - 0.0
22/07:00am 24.6 26.8 20.3 77 2.8 N 9 13 5 7 - - 0.0
22/06:30am 23.8 26.0 20.3 81 2.3 NNE 9 15 5 8 - - 0.0
22/06:00am 23.2 25.3 20.2 83 2.0 N 9 15 5 8 - - 0.0
22/05:30am 23.1 25.2 20.2 84 1.9 NNE 9 13 5 7 - - 0.0
22/05:00am 23.1 25.2 20.1 83 1.9 N 9 15 5 8 - - 0.0
22/04:30am 23.3 25.4 20.1 82 2.1 NNE 9 13 5 7 - - 0.0
22/04:00am 23.3 25.4 20.2 83 2.0 NNE 9 15 5 8 - - 0.0
22/03:30am 23.1 24.8 20.1 83 1.9 NNE 11 15 6 8 - - 0.0
22/03:00am 23.4 24.7 20.2 82 2.1 N 13 19 7 10 - - 0.0
22/02:30am 23.4 25.1 20.2 82 2.1 N 11 22 6 12 - - 0.0
22/02:00am 23.5 24.7 20.0 81 2.3 NNE 13 17 7 9 - - 0.0
22/01:30am 23.4 25.1 20.2 82 2.1 NNE 11 20 6 11 - - 0.0
22/01:00am 23.4 25.9 20.2 82 2.1 NNE 7 11 4 6 - - 0.0
22/12:30am 23.6 25.5 20.5 83 2.0 NE 11 15 6 8 - - 0.0
22/12:00am 23.5 26.0 20.2 82 2.1 NNE 7 15 4 8 - - 0.0
 
Date/Time
EST
Temp
°C
App
Temp
°C
Dew
Point
°C
Rel
Hum
%
Delta-T
°C
Wind Press
QNH
hPa
Press
MSL
hPa
Rain since
9am
mm
Dir  Spd
km/h
Gust
km/h
Spd
kts
Gust
kts
21/11:30pm 23.5 25.7 20.4 83 2.0 NE 9 11 5 6 - - 0.0
21/11:00pm 23.5 25.6 20.2 82 2.1 NNE 9 13 5 7 - - 0.0
21/10:30pm 23.7 25.1 20.4 82 2.2 NE 13 19 7 10 - - 0.0
21/10:00pm 23.7 25.5 20.4 82 2.2 NNE 11 17 6 9 - - 0.0
21/09:30pm 23.8 24.9 20.5 82 2.2 NE 15 20 8 11 - - 0.0
21/09:00pm 23.9 25.4 20.6 82 2.2 NE 13 22 7 12 - - 0.0
21/08:30pm 24.0 24.3 20.3 80 2.4 ENE 19 28 10 15 - - 0.0
21/08:00pm 24.0 25.5 20.5 81 2.3 NE 13 20 7 11 - - 0.0
21/07:30pm 24.1 25.2 20.4 80 2.4 NNE 15 22 8 12 - - 0.0
21/07:00pm 24.3 25.8 19.8 76 2.9 N 11 20 6 11 - - 0.0
21/06:30pm 24.5 25.6 19.6 74 3.2 NE 13 22 7 12 - - 0.0
21/06:00pm 25.0 24.6 19.4 71 3.6 NE 20 28 11 15 - - 0.0
21/05:30pm 25.9 25.7 19.3 67 4.3 NE 19 26 10 14 - - 0.0
21/05:00pm 27.1 26.5 18.9 61 5.3 NE 20 28 11 15 - - 0.0
21/04:30pm 28.1 27.8 18.2 55 6.4 NE 17 22 9 12 - - 0.0
21/04:00pm 29.2 28.4 17.1 48 7.7 NE 17 24 9 13 - - 0.0
21/03:30pm 29.1 29.3 18.5 52 6.9 NNE 15 24 8 13 - - 0.0
21/03:00pm 29.8 30.0 18.6 51 7.3 NNE 15 26 8 14 - - 0.0
21/02:30pm 30.6 30.9 18.0 47 8.1 NNW 13 20 7 11 - - 0.0
21/02:00pm 30.1 30.8 17.9 48 7.8 NNW 11 20 6 11 - - 0.0
21/01:30pm 30.1 31.5 17.9 48 7.8 N 7 19 4 10 - - 0.0
21/01:00pm 30.1 30.9 18.2 49 7.7 NW 11 20 6 11 - - 0.0
21/12:30pm 29.0 30.0 18.7 53 6.7 N 11 20 6 11 - - 0.0
21/12:00pm 29.3 29.9 18.7 52 6.9 NNE 13 19 7 10 - - 0.0
21/11:30am 30.6 31.7 19.6 51 7.3 NNE 13 22 7 12 - - 0.0
21/11:00am 28.9 28.7 18.4 53 6.8 NE 17 24 9 13 - - 0.0
21/10:30am 28.6 29.1 19.2 56 6.1 NNW 15 26 8 14 - - 0.0
21/10:00am 27.5 28.1 18.5 58 5.8 NW 13 20 7 11 - - 0.0
21/09:30am 27.7 28.0 17.8 54 6.3 NNE 13 19 7 10 - - 0.0
21/09:00am 27.6 29.0 18.6 58 5.8 NNE 9 19 5 10 - - 0.0
21/08:30am 27.1 27.6 18.4 59 5.6 NE 13 19 7 10 - - 0.0
21/08:00am 25.5 26.4 18.4 65 4.5 N 11 19 6 10 - - 0.0
21/07:30am 24.6 24.8 18.5 69 3.9 N 15 22 8 12 - - 0.0
21/07:00am 24.2 25.4 19.1 73 3.3 NNE 11 17 6 9 - - 0.0
21/06:30am 23.6 25.3 19.3 77 2.8 NNE 9 15 5 8 - - 0.0
21/06:00am 22.7 23.5 19.1 80 2.3 NNE 13 17 7 9 - - 0.0
21/05:30am 22.5 23.6 18.9 80 2.3 NNE 11 17 6 9 - - 0.0
21/05:00am 22.6 23.6 19.4 82 2.1 NNE 13 17 7 9 - - 0.0
21/04:30am 22.8 23.4 19.4 81 2.2 NNE 15 20 8 11 - - 0.0
21/04:00am 22.9 23.5 19.5 81 2.2 N 15 24 8 13 - - 0.0
21/03:30am 22.6 25.1 19.9 85 1.7 NNE 6 7 3 4 - - 0.0
21/03:00am 22.8 24.4 20.0 84 1.8 NNE 11 15 6 8 - - 0.0
21/02:30am 22.8 24.8 20.0 84 1.8 NNE 9 15 5 8 - - 0.0
21/02:00am 22.9 24.6 20.2 85 1.8 NE 11 17 6 9 - - 0.0
21/01:30am 22.9 25.1 20.4 86 1.6 NE 9 17 5 9 - - 0.0
21/01:00am 22.9 25.6 20.6 87 1.5 NE 7 9 4 5 - - 0.0
21/12:30am 22.8 24.8 20.7 88 1.4 NE 11 20 6 11 - - 0.0
21/12:00am 22.5 24.5 20.8 90 1.1 ENE 11 15 6 8 - - 0.0
 
Date/Time
EST
Temp
°C
App
Temp
°C
Dew
Point
°C
Rel
Hum
%
Delta-T
°C
Wind Press
QNH
hPa
Press
MSL
hPa
Rain since
9am
mm
Dir  Spd
km/h
Gust
km/h
Spd
kts
Gust
kts
20/11:30pm 22.6 25.5 20.7 89 1.2 E 6 6 3 3 - - 0.0
20/11:00pm 22.7 25.1 20.8 89 1.2 ENE 9 11 5 6 - - 0.0
20/10:30pm 23.4 25.0 20.7 85 1.8 ENE 13 19 7 10 - - 0.0
20/10:00pm 23.4 25.0 20.7 85 1.8 NE 13 20 7 11 - - 0.0
20/09:30pm 23.5 25.0 20.6 84 1.9 NE 13 17 7 9 - - 0.0
20/09:00pm 23.6 24.7 20.5 83 2.0 NE 15 20 8 11 - - 0.0

Other Formats:

Comma delimited format used in spreadsheet applications
http://www.bom.gov.au/fwo/IDQ60801/IDQ60801.94272.axf

JavaScript Object Notation format (JSON) in row-major order
http://www.bom.gov.au/fwo/IDQ60801/IDQ60801.94272.json